createdAt,value
2022-10-11T00:01:18.815Z,101923.28
2022-10-11T00:03:45.421Z,101934.63
2022-10-11T00:06:12.049Z,101947.00
2022-10-11T00:08:38.545Z,101944.63
2022-10-11T00:11:07.480Z,101941.56
2022-10-11T00:13:34.597Z,101941.72
2022-10-11T00:16:01.523Z,101934.47
2022-10-11T00:18:28.329Z,101945.59
2022-10-11T00:21:06.279Z,101941.75
2022-10-11T00:23:33.531Z,101936.53
2022-10-11T00:26:02.207Z,101947.13
2022-10-11T00:28:29.317Z,101941.97
2022-10-11T00:30:56.335Z,101947.28
2022-10-11T00:33:22.988Z,101949.72
2022-10-11T00:35:49.468Z,101955.88
2022-10-11T00:38:16.382Z,101960.31
2022-10-11T00:40:43.580Z,101949.13
2022-10-11T00:43:23.268Z,101955.47
2022-10-11T00:45:55.914Z,101952.13
2022-10-11T00:48:45.112Z,101942.41
2022-10-11T00:51:49.844Z,101965.56
2022-10-11T00:54:18.925Z,101967.66
2022-10-11T00:56:49.309Z,101964.34
2022-10-11T00:59:21.636Z,101968.94
2022-10-11T01:01:48.331Z,101948.72
2022-10-11T01:04:14.841Z,101968.47
2022-10-11T01:06:42.167Z,101962.72
2022-10-11T01:09:09.145Z,101969.06
2022-10-11T01:11:37.849Z,101945.53
2022-10-11T01:14:37.030Z,101975.41
2022-10-11T01:17:24.822Z,101970.44
2022-10-11T01:20:23.581Z,101964.53
2022-10-11T01:23:09.969Z,101978.59
2022-10-11T01:25:48.966Z,101926.31
2022-10-11T01:28:42.345Z,101965.03
2022-10-11T01:31:21.792Z,101967.72
2022-10-11T01:33:57.906Z,101973.81
2022-10-11T01:36:37.259Z,101964.41
2022-10-11T01:39:13.210Z,101953.63
2022-10-11T01:41:53.685Z,101965.59
2022-10-11T01:44:20.481Z,101974.13
2022-10-11T01:46:46.960Z,101974.88
2022-10-11T01:49:13.430Z,101973.91
2022-10-11T01:51:47.134Z,101977.28
2022-10-11T01:55:09.989Z,101972.97
2022-10-11T01:57:51.799Z,101969.53
2022-10-11T02:00:23.515Z,101972.13
2022-10-11T02:02:52.721Z,101972.91
2022-10-11T02:05:47.101Z,101983.34
2022-10-11T02:08:32.587Z,101980.03
2022-10-11T02:11:11.525Z,101973.25
2022-10-11T02:13:44.262Z,101983.66
2022-10-11T02:16:14.589Z,101975.94
2022-10-11T02:18:49.988Z,101982.03
2022-10-11T02:21:19.442Z,101983.19
2022-10-11T02:23:55.678Z,101983.88
2022-10-11T02:26:24.876Z,101992.47
2022-10-11T02:28:56.514Z,101993.16
2022-10-11T02:31:24.507Z,101992.25
2022-10-11T02:34:02.034Z,101992.34
2022-10-11T02:37:14.638Z,101998.66
2022-10-11T02:39:55.416Z,101955.47
2022-10-11T02:42:30.912Z,101995.28
2022-10-11T02:45:04.287Z,101993.59
2022-10-11T02:47:31.800Z,102002.31
2022-10-11T02:50:01.209Z,102004.22
2022-10-11T02:52:27.752Z,102001.09
2022-10-11T02:54:54.267Z,102003.84
2022-10-11T02:57:20.714Z,102003.84
2022-10-11T02:59:47.167Z,102015.19
2022-10-11T03:02:13.635Z,102013.41
2022-10-11T03:04:40.083Z,102024.72
2022-10-11T03:07:06.622Z,102023.19
2022-10-11T03:09:33.080Z,102003.56
2022-10-11T03:11:59.593Z,102028.59
2022-10-11T03:14:26.179Z,102011.38
2022-10-11T03:16:52.584Z,102015.81
2022-10-11T03:19:19.539Z,102018.59
2022-10-11T03:21:46.390Z,102029.13
2022-10-11T03:24:12.926Z,102024.00
2022-10-11T03:26:39.531Z,102030.91
2022-10-11T03:29:05.983Z,102028.41
2022-10-11T03:31:32.465Z,102019.72
2022-10-11T03:33:58.913Z,102029.13
2022-10-11T03:36:25.433Z,102026.66
2022-10-11T03:38:51.933Z,102031.81
2022-10-11T03:41:18.373Z,102036.00
2022-10-11T03:43:44.841Z,102020.75
2022-10-11T03:46:11.236Z,102029.41
2022-10-11T03:48:37.753Z,102001.63
2022-10-11T03:51:04.449Z,102040.78
2022-10-11T03:53:30.947Z,102035.00
2022-10-11T03:55:57.619Z,102029.69
2022-10-11T03:58:24.535Z,102024.78
2022-10-11T04:00:52.836Z,102047.69
2022-10-11T04:03:19.401Z,102042.59
2022-10-11T04:05:45.895Z,102041.28
2022-10-11T04:08:12.586Z,102044.63
2022-10-11T04:10:40.414Z,102053.38
2022-10-11T04:15:34.216Z,102047.53
2022-10-11T04:18:01.491Z,102054.66
2022-10-11T04:20:28.027Z,102058.38
2022-10-11T04:22:54.441Z,102024.50
2022-10-11T04:25:20.965Z,102051.59
2022-10-11T04:27:47.502Z,102050.72
2022-10-11T04:30:14.933Z,102060.09
2022-10-11T04:32:41.481Z,102051.53
2022-10-11T04:35:08.677Z,102054.19
2022-10-11T04:37:35.249Z,102050.94
2022-10-11T04:40:01.734Z,102053.41
2022-10-11T04:42:28.435Z,102054.47
2022-10-11T04:44:54.886Z,102062.25
2022-10-11T04:47:21.376Z,102066.00
2022-10-11T04:49:47.828Z,102072.19
2022-10-11T04:52:14.315Z,102075.78
2022-10-11T04:54:40.770Z,102076.69
2022-10-11T04:57:07.284Z,102082.13
2022-10-11T04:59:33.847Z,102077.28
2022-10-11T05:02:00.372Z,102082.50
2022-10-11T05:04:26.851Z,102083.44
2022-10-11T05:06:53.282Z,102073.28
2022-10-11T05:09:20.063Z,102069.22
2022-10-11T05:11:46.513Z,102088.09
2022-10-11T05:14:12.937Z,102081.38
2022-10-11T05:16:39.572Z,102092.94
2022-10-11T05:19:06.102Z,102096.53
2022-10-11T05:21:32.729Z,102098.41
2022-10-11T05:23:59.176Z,102095.94
2022-10-11T05:26:27.728Z,102099.53
2022-10-11T05:28:55.432Z,102100.59
2022-10-11T05:31:22.104Z,102104.09
2022-10-11T05:33:48.620Z,102109.31
2022-10-11T05:36:15.302Z,102104.31
2022-10-11T05:38:41.878Z,102113.94
2022-10-11T05:41:09.332Z,102119.22
2022-10-11T05:43:35.811Z,102110.56
2022-10-11T05:46:02.599Z,102109.94
2022-10-11T05:48:29.403Z,102112.53
2022-10-11T05:51:00.288Z,102130.56
2022-10-11T05:53:26.802Z,102129.84
2022-10-11T05:55:53.237Z,102134.19
2022-10-11T05:58:19.772Z,102124.59
2022-10-11T06:00:46.396Z,102129.63
2022-10-11T06:03:13.285Z,102133.88
2022-10-11T06:05:40.141Z,102125.19
2022-10-11T06:08:08.652Z,102133.88
2022-10-11T06:10:36.261Z,102135.59
2022-10-11T06:13:02.945Z,102137.28
2022-10-11T06:15:29.839Z,102147.63
2022-10-11T06:17:56.539Z,102129.59
2022-10-11T06:20:23.010Z,102138.81
2022-10-11T06:22:49.496Z,102146.44
2022-10-11T06:25:16.209Z,102143.63
2022-10-11T06:27:42.696Z,102159.38
2022-10-11T06:30:09.697Z,102148.22
2022-10-11T06:32:36.220Z,102156.69
2022-10-11T06:35:03.434Z,102170.31
2022-10-11T06:37:30.123Z,102167.25
2022-10-11T06:39:56.537Z,102164.03
2022-10-11T06:42:22.973Z,102165.38
2022-10-11T06:44:49.376Z,102164.16
2022-10-11T06:47:15.826Z,102167.59
2022-10-11T06:49:42.321Z,102175.31
2022-10-11T06:52:09.401Z,102179.63
2022-10-11T06:54:35.864Z,102194.00
2022-10-11T06:57:02.344Z,102190.53
2022-10-11T06:59:28.792Z,102191.56
2022-10-11T07:01:55.299Z,102192.72
2022-10-11T07:04:21.754Z,102194.66
2022-10-11T07:06:48.559Z,102197.13
2022-10-11T07:09:30.879Z,102186.25
2022-10-11T07:11:57.337Z,102204.94
2022-10-11T07:14:23.789Z,102197.16
2022-10-11T07:16:50.238Z,102200.16
2022-10-11T07:19:16.782Z,102191.56
2022-10-11T07:21:43.273Z,102208.69
2022-10-11T07:24:09.869Z,102202.81
2022-10-11T07:26:38.899Z,102199.63
2022-10-11T07:29:09.312Z,102185.22
2022-10-11T07:31:39.072Z,102212.56
2022-10-11T07:34:05.569Z,102216.59
2022-10-11T07:36:32.167Z,102221.63
2022-10-11T07:38:58.697Z,102224.47
2022-10-11T07:41:25.164Z,102221.75
2022-10-11T07:43:51.699Z,102213.88
2022-10-11T07:46:18.758Z,102215.88
2022-10-11T07:48:45.673Z,102213.72
2022-10-11T07:51:18.566Z,102215.53
2022-10-11T07:53:50.946Z,102220.53
2022-10-11T07:56:20.206Z,102221.13
2022-10-11T07:58:51.569Z,102216.25
2022-10-11T08:01:18.825Z,102220.38
2022-10-11T08:03:45.829Z,102221.34
2022-10-11T08:06:14.874Z,102219.97
2022-10-11T08:08:41.386Z,102226.91
2022-10-11T08:11:08.004Z,102223.25
2022-10-11T08:13:34.732Z,102220.78
2022-10-11T08:16:01.701Z,102219.50
2022-10-11T08:18:28.253Z,102223.47
2022-10-11T08:20:54.767Z,102233.34
2022-10-11T08:23:21.473Z,102150.44
2022-10-11T08:25:48.246Z,102210.28
2022-10-11T08:28:17.642Z,102247.94
2022-10-11T08:30:49.417Z,102238.13
2022-10-11T08:33:17.317Z,102235.19
2022-10-11T08:35:44.093Z,102234.84
2022-10-11T08:38:10.725Z,102244.84
2022-10-11T08:40:37.628Z,102248.22
2022-10-11T08:43:08.101Z,102246.81
2022-10-11T08:45:53.552Z,102252.94
2022-10-11T08:48:26.060Z,102245.16
2022-10-11T08:50:54.549Z,102244.56
2022-10-11T08:53:45.438Z,102250.31
2022-10-11T08:56:16.423Z,102250.31
2022-10-11T08:58:51.932Z,102252.31
2022-10-11T09:01:22.647Z,102255.59
2022-10-11T09:03:49.990Z,102249.59
2022-10-11T09:06:31.062Z,102245.09
2022-10-11T09:09:25.625Z,102239.78
2022-10-11T09:12:10.697Z,102244.31
2022-10-11T09:15:02.236Z,102247.50
2022-10-11T09:17:50.465Z,102244.31
2022-10-11T09:20:32.648Z,102250.69
2022-10-11T09:23:25.263Z,102247.00
2022-10-11T09:26:25.573Z,102243.19
2022-10-11T09:29:11.488Z,102250.22
2022-10-11T09:31:38.023Z,102252.59
2022-10-11T09:34:14.079Z,102247.13
2022-10-11T09:37:18.041Z,102256.66
2022-10-11T09:40:10.773Z,102262.59
2022-10-11T09:42:37.298Z,102264.88
2022-10-11T09:45:16.486Z,102257.91
2022-10-11T09:47:43.042Z,102252.38
2022-10-11T09:50:22.216Z,102262.88
2022-10-11T09:52:51.792Z,102258.28
2022-10-11T09:55:40.943Z,102257.59
2022-10-11T09:58:32.296Z,102258.44
2022-10-11T10:01:08.545Z,102247.34
2022-10-11T10:03:36.346Z,102262.47
2022-10-11T10:06:10.097Z,102260.31
2022-10-11T10:08:36.696Z,102264.16
2022-10-11T10:11:06.336Z,102264.94
2022-10-11T10:13:46.016Z,102277.25
2022-10-11T10:16:30.642Z,102264.66
2022-10-11T10:18:58.714Z,102273.53
2022-10-11T10:21:34.657Z,102263.72
2022-10-11T10:24:05.255Z,102268.53
2022-10-11T10:26:32.641Z,102262.19
2022-10-11T10:29:01.726Z,102262.06
2022-10-11T10:31:49.453Z,102265.69
2022-10-11T10:34:31.534Z,102259.13
2022-10-11T10:37:06.040Z,102251.22
2022-10-11T10:40:04.934Z,102251.72
2022-10-11T10:42:31.510Z,102255.19
2022-10-11T10:44:59.017Z,102255.78
2022-10-11T10:47:47.148Z,102247.03
2022-10-11T10:50:52.549Z,102247.91
2022-10-11T10:53:29.153Z,102247.94
2022-10-11T10:56:02.521Z,102251.00
2022-10-11T10:58:53.629Z,102262.19
2022-10-11T11:01:27.663Z,102254.06
2022-10-11T11:03:56.867Z,102249.41
2022-10-11T11:06:49.235Z,102250.00
2022-10-11T11:09:25.051Z,102248.63
2022-10-11T11:12:25.001Z,102249.44
2022-10-11T11:15:02.407Z,102245.72
2022-10-11T11:17:59.244Z,102249.63
2022-10-11T11:20:34.729Z,102230.88
2022-10-11T11:23:30.547Z,102225.19
2022-10-11T11:26:24.637Z,102230.22
2022-10-11T11:29:03.644Z,102228.19
2022-10-11T11:31:59.543Z,102229.50
2022-10-11T11:34:37.890Z,102224.88
2022-10-11T11:37:41.699Z,102226.44
2022-10-11T11:40:18.517Z,102222.97
2022-10-11T11:42:55.923Z,102213.19
2022-10-11T11:45:31.005Z,102196.00
2022-10-11T11:48:06.100Z,102218.00
2022-10-11T11:50:40.125Z,102218.50
2022-10-11T11:53:14.554Z,102197.63
2022-10-11T11:55:51.215Z,102216.72
2022-10-11T11:58:52.948Z,102209.88
2022-10-11T12:01:37.601Z,102211.13
2022-10-11T12:04:19.059Z,102197.28
2022-10-11T12:07:15.422Z,102200.94
2022-10-11T12:09:46.620Z,102199.72
2022-10-11T12:12:36.185Z,102204.91
2022-10-11T12:15:16.745Z,102209.88
2022-10-11T12:17:55.880Z,102187.84
2022-10-11T12:20:25.174Z,102197.28
2022-10-11T12:22:53.641Z,102192.09
2022-10-11T12:25:23.292Z,102195.66
2022-10-11T12:27:57.980Z,102185.81
2022-10-11T12:30:50.906Z,102180.72
2022-10-11T12:33:21.367Z,102179.88
2022-10-11T12:35:53.653Z,102184.19
2022-10-11T12:38:29.839Z,102180.63
2022-10-11T12:41:21.966Z,102177.16
2022-10-11T12:43:48.579Z,102182.47
2022-10-11T12:46:31.140Z,102174.25
2022-10-11T12:49:16.128Z,102172.75
2022-10-11T12:51:56.209Z,102159.53
2022-10-11T12:54:28.259Z,102163.31
2022-10-11T12:57:11.010Z,102161.78
2022-10-11T12:59:44.096Z,102171.19
2022-10-11T13:02:29.134Z,102172.06
2022-10-11T13:05:25.811Z,102173.59
2022-10-11T13:07:55.406Z,102168.44
2022-10-11T13:10:32.875Z,102122.63
2022-10-11T13:13:04.264Z,102159.19
2022-10-11T13:15:31.684Z,102159.41
2022-10-11T13:18:00.342Z,102154.13
2022-10-11T13:20:36.227Z,102161.16
2022-10-11T13:23:29.175Z,102159.66
2022-10-11T13:25:56.603Z,102156.84
2022-10-11T13:28:23.917Z,102156.47
2022-10-11T13:30:54.387Z,102154.88
2022-10-11T13:33:32.131Z,102108.66
2022-10-11T13:36:01.290Z,102143.53
2022-10-11T13:38:34.084Z,102146.16
2022-10-11T13:41:04.394Z,102135.41
2022-10-11T13:43:31.312Z,102133.81
2022-10-11T13:46:00.009Z,102138.84
2022-10-11T13:48:31.745Z,102129.41
2022-10-11T13:51:27.460Z,102137.06
2022-10-11T13:53:59.466Z,102104.59
2022-10-11T13:56:27.700Z,102124.06
2022-10-11T13:58:54.795Z,102134.44
2022-10-11T14:01:25.391Z,102117.63
2022-10-11T14:03:59.392Z,102122.78
2022-10-11T14:06:51.891Z,102123.31
2022-10-11T14:09:31.774Z,102108.06
2022-10-11T14:12:26.348Z,102133.88
2022-10-11T14:14:53.018Z,102086.84
2022-10-11T14:17:22.166Z,102118.97
2022-10-11T14:20:11.379Z,102118.03
2022-10-11T14:22:38.663Z,102118.75
2022-10-11T14:25:05.463Z,102089.69
2022-10-11T14:27:32.229Z,102119.75
2022-10-11T14:30:25.122Z,102114.69
2022-10-11T14:32:47.920Z,102114.69
2022-10-11T14:35:29.495Z,102106.22
2022-10-11T14:37:56.111Z,102102.81
2022-10-11T14:40:26.820Z,102108.38
2022-10-11T14:42:53.915Z,102103.63
2022-10-11T14:45:21.347Z,102111.81
2022-10-11T14:47:48.371Z,102112.47
2022-10-11T14:50:34.233Z,102113.72
2022-10-11T14:53:01.240Z,102115.31
2022-10-11T14:55:27.763Z,102110.34
2022-10-11T14:57:55.273Z,102105.13
2022-10-11T15:00:25.006Z,102106.59
2022-10-11T15:02:52.782Z,102106.94
2022-10-11T15:05:20.825Z,102103.75
2022-10-11T15:07:48.085Z,102085.09
2022-10-11T15:10:21.890Z,102099.56
2022-10-11T15:12:49.824Z,102102.75
2022-10-11T15:15:20.528Z,102098.28
2022-10-11T15:17:48.705Z,102100.63
2022-10-11T15:20:37.208Z,102088.25
2022-10-11T15:23:04.990Z,102083.28
2022-10-11T15:25:32.024Z,102084.91
2022-10-11T15:27:58.678Z,102075.47
2022-10-11T15:30:31.116Z,102085.72
2022-10-11T15:32:57.845Z,102092.06
2022-10-11T15:35:25.750Z,102092.59
2022-10-11T15:37:55.150Z,102089.00
2022-10-11T15:40:33.628Z,102097.53
2022-10-11T15:43:00.598Z,102080.50
2022-10-11T15:45:27.459Z,102086.25
2022-10-11T15:47:54.041Z,102064.09
2022-10-11T15:50:39.375Z,102082.66
2022-10-11T15:53:26.216Z,102081.81
2022-10-11T15:55:54.840Z,102078.00
2022-10-11T15:58:22.390Z,102076.06
2022-10-11T16:00:54.033Z,102068.16
2022-10-11T16:03:22.415Z,102060.28
2022-10-11T16:05:49.131Z,102051.31
2022-10-11T16:08:15.721Z,102070.44
2022-10-11T16:10:42.220Z,102066.59
2022-10-11T16:13:10.196Z,102059.78
2022-10-11T16:15:39.577Z,102040.13
2022-10-11T16:18:07.353Z,102059.06
2022-10-11T16:20:34.039Z,102066.69
2022-10-11T16:23:00.525Z,102052.38
2022-10-11T16:25:26.988Z,102062.88
2022-10-11T16:27:53.555Z,102067.06
2022-10-11T16:30:20.492Z,102073.81
2022-10-11T16:32:47.577Z,102079.44
2022-10-11T16:35:15.465Z,102078.44
2022-10-11T16:37:42.666Z,102070.69
2022-10-11T16:40:10.391Z,102070.66
2022-10-11T16:42:38.960Z,102073.66
2022-10-11T16:45:06.487Z,102075.16
2022-10-11T16:47:33.054Z,102069.81
2022-10-11T16:50:00.143Z,102066.56
2022-10-11T16:52:26.676Z,102077.91
2022-10-11T16:54:53.123Z,102077.91
2022-10-11T16:57:20.127Z,102030.88
2022-10-11T16:59:47.259Z,102075.06
2022-10-11T17:02:21.168Z,102077.19
2022-10-11T17:04:50.496Z,102079.69
2022-10-11T17:07:18.162Z,102071.78
2022-10-11T17:09:45.768Z,102079.63
2022-10-11T17:12:14.386Z,102070.69
2022-10-11T17:14:41.731Z,102077.38
2022-10-11T17:17:10.357Z,102073.03
2022-10-11T17:19:45.023Z,102072.75
2022-10-11T17:22:14.392Z,102082.16
2022-10-11T17:24:40.858Z,102075.53
2022-10-11T17:27:08.034Z,102072.59
2022-10-11T17:29:35.061Z,102073.09
2022-10-11T17:32:02.016Z,102045.94
2022-10-11T17:34:28.616Z,102075.06
2022-10-11T17:36:55.185Z,102066.59
2022-10-11T17:39:23.587Z,102060.69
2022-10-11T17:41:50.712Z,102052.81
2022-10-11T17:44:18.825Z,102082.47
2022-10-11T17:46:46.066Z,102082.94
2022-10-11T17:49:13.213Z,102079.00
2022-10-11T17:51:40.523Z,102076.16
2022-10-11T17:54:12.330Z,102071.19
2022-10-11T17:56:40.772Z,102040.16
2022-10-11T17:59:08.304Z,102068.38
2022-10-11T18:01:35.660Z,102065.22
2022-10-11T18:04:04.388Z,102071.53
2022-10-11T18:06:34.164Z,102069.00
2022-10-11T18:09:02.550Z,102073.66
2022-10-11T18:11:29.947Z,102067.03
2022-10-11T18:13:56.544Z,102079.59
2022-10-11T18:16:26.885Z,102043.53
2022-10-11T18:18:54.121Z,102067.56
2022-10-11T18:21:20.725Z,102078.16
2022-10-11T18:23:47.325Z,102076.81
2022-10-11T18:26:26.613Z,102074.53
2022-10-11T18:28:56.346Z,102079.09
2022-10-11T18:31:29.194Z,102045.59
2022-10-11T18:33:55.906Z,102079.59
2022-10-11T18:36:25.989Z,102069.66
2022-10-11T18:38:55.449Z,102068.16
2022-10-11T18:41:23.515Z,102075.31
2022-10-11T18:43:52.402Z,102068.41
2022-10-11T18:46:19.822Z,102069.59
2022-10-11T18:48:48.237Z,102068.72
2022-10-11T18:51:21.693Z,102081.28
2022-10-11T18:53:48.725Z,102069.41
2022-10-11T18:56:17.133Z,102077.38
2022-10-11T18:58:44.520Z,102080.25
2022-10-11T19:01:16.008Z,102073.69
2022-10-11T19:03:43.664Z,102072.06
2022-10-11T19:06:17.666Z,102063.88
2022-10-11T19:08:45.817Z,102069.16
2022-10-11T19:11:13.913Z,102071.38
2022-10-11T19:13:40.456Z,102057.78
2022-10-11T19:16:16.575Z,102063.91
2022-10-11T19:18:44.578Z,102067.69
2022-10-11T19:21:13.360Z,102075.50
2022-10-11T19:23:45.067Z,102069.84
2022-10-11T19:26:19.054Z,102063.94
2022-10-11T19:28:46.248Z,102066.47
2022-10-11T19:31:16.866Z,102070.06
2022-10-11T19:33:45.330Z,102078.06
2022-10-11T19:36:14.049Z,102068.94
2022-10-11T19:38:45.251Z,102072.53
2022-10-11T19:41:13.534Z,102068.25
2022-10-11T19:43:40.074Z,102073.56
2022-10-11T19:46:20.318Z,102070.31
2022-10-11T19:48:54.392Z,102060.88
2022-10-11T19:51:25.157Z,102065.63
2022-10-11T19:54:18.130Z,102063.13
2022-10-11T19:56:44.807Z,102060.88
2022-10-11T19:59:12.612Z,102062.72
2022-10-11T20:01:39.962Z,102066.25
2022-10-11T20:04:09.045Z,102060.50
2022-10-11T20:06:39.044Z,102071.16
2022-10-11T20:11:53.839Z,102067.19
2022-10-11T20:14:20.555Z,102063.97
2022-10-11T20:16:49.962Z,102054.75
2022-10-11T20:19:16.568Z,102062.56
2022-10-11T20:21:43.934Z,102060.25
2022-10-11T20:24:10.508Z,102068.06
2022-10-11T20:26:37.077Z,102052.00
2022-10-11T20:29:03.667Z,102038.66
2022-10-11T20:31:32.897Z,102064.13
2022-10-11T20:34:02.044Z,102064.47
2022-10-11T20:36:30.105Z,102071.38
2022-10-11T20:38:58.033Z,102069.75
2022-10-11T20:41:27.767Z,102058.56
2022-10-11T20:43:58.092Z,102064.91
2022-10-11T20:46:27.910Z,102064.22
2022-10-11T20:49:01.385Z,102035.78
2022-10-11T20:51:32.856Z,102053.59
2022-10-11T20:54:00.739Z,102051.31
2022-10-11T20:56:27.570Z,102055.72
2022-10-11T20:58:56.411Z,102050.91
2022-10-11T21:01:28.654Z,102031.63
2022-10-11T21:03:57.545Z,102061.03
2022-10-11T21:06:24.195Z,102056.75
2022-10-11T21:08:50.806Z,102058.56
2022-10-11T21:11:17.332Z,102058.72
2022-10-11T21:13:43.873Z,102061.44
2022-10-11T21:16:15.412Z,102059.91
2022-10-11T21:18:42.352Z,102043.59
2022-10-11T21:21:13.822Z,102042.16
2022-10-11T21:23:41.215Z,102016.41
2022-10-11T21:26:10.322Z,102029.91
2022-10-11T21:28:37.477Z,102041.81
2022-10-11T21:31:12.224Z,102037.53
2022-10-11T21:33:39.630Z,102038.50
2022-10-11T21:36:17.566Z,102034.31
2022-10-11T21:38:44.574Z,102029.53
2022-10-11T21:41:16.582Z,102016.88
2022-10-11T21:43:43.733Z,102025.56
2022-10-11T21:46:12.047Z,102028.94
2022-10-11T21:48:38.994Z,102029.88
2022-10-11T21:51:05.779Z,102031.59
2022-10-11T21:53:32.659Z,102033.38
2022-10-11T21:56:00.893Z,102036.94
2022-10-11T21:58:28.109Z,102040.59
2022-10-11T22:00:55.010Z,102021.41
2022-10-11T22:03:21.874Z,102043.66
2022-10-11T22:05:48.342Z,102039.56
2022-10-11T22:08:15.560Z,102014.53
2022-10-11T22:10:52.866Z,102045.78
2022-10-11T22:13:19.365Z,102043.22
2022-10-11T22:15:45.836Z,102042.63
2022-10-11T22:18:12.304Z,102039.22
2022-10-11T22:20:38.766Z,102036.00
2022-10-11T22:23:05.345Z,102024.38
2022-10-11T22:25:35.001Z,102037.91
2022-10-11T22:28:01.449Z,102040.66
2022-10-11T22:30:27.910Z,102036.31
2022-10-11T22:32:54.355Z,102034.88
2022-10-11T22:35:20.868Z,102030.72
2022-10-11T22:37:47.477Z,102034.34
2022-10-11T22:40:13.951Z,102030.28
2022-10-11T22:42:40.482Z,102033.06
2022-10-11T22:45:07.236Z,102023.69
2022-10-11T22:47:33.929Z,102034.16
2022-10-11T22:50:00.540Z,102025.47
2022-10-11T22:52:27.057Z,101990.03
2022-10-11T22:54:53.527Z,102027.78
2022-10-11T22:57:19.990Z,102021.88
2022-10-11T22:59:46.448Z,102025.28
2022-10-11T23:02:12.958Z,102025.28
2022-10-11T23:04:39.397Z,102031.47
2022-10-11T23:07:05.883Z,102031.66
2022-10-11T23:09:32.357Z,102021.44
2022-10-11T23:11:59.428Z,102030.94
2022-10-11T23:14:25.912Z,102025.84
2022-10-11T23:16:53.008Z,102031.28
2022-10-11T23:19:19.606Z,102036.53
2022-10-11T23:21:46.779Z,101998.47
2022-10-11T23:24:13.399Z,102027.38
2022-10-11T23:26:39.893Z,102023.09
2022-10-11T23:29:06.503Z,102017.09
2022-10-11T23:31:32.922Z,102026.66
2022-10-11T23:33:59.408Z,102022.38
2022-10-11T23:36:26.304Z,102017.28
2022-10-11T23:38:54.918Z,102017.44
2022-10-11T23:41:23.001Z,102018.34
2022-10-11T23:43:49.466Z,102019.25
2022-10-11T23:46:16.132Z,102025.34
2022-10-11T23:48:42.593Z,102021.97
2022-10-11T23:51:09.481Z,102018.66
2022-10-11T23:53:36.556Z,102018.69
2022-10-11T23:56:03.941Z,102029.19
2022-10-11T23:58:30.474Z,102027.56
